Terminal Aerodrome Forecast
Issued by NWS Quad Cities IA IL

Home | Current Version | Previous Version | Text Only | Print | Product List | Glossary On
Versions: 1 2 3 4 5 6 7 8 9 10 11 12 13 14 15 16 17 18
640
FTUS43 KDVN 210533
TAFMLI
TAF
KMLI 210533Z 2106/2206 21005KT 6SM BR BKN050
      TEMPO 2106/2109 2SM -RA BR BKN025
     FM210900 25005KT 2SM BR BKN015
     FM211300 30005KT 4SM BR SCT015
     FM211600 VRB04KT P6SM SKC=

USA.gov is the U.S. government's official web portal to all federal, state and local government web resources and services.